sensor_id;sensor_type;location;lat;lon;timestamp;temperature;humidity
79439;DHT22;68889;48.232;10.110;2023-08-08T00:02:18;12.10;94.00
79439;DHT22;68889;48.232;10.110;2023-08-08T00:04:43;12.10;93.70
79439;DHT22;68889;48.232;10.110;2023-08-08T00:07:09;12.10;93.50
79439;DHT22;68889;48.232;10.110;2023-08-08T00:09:36;12.10;93.50
79439;DHT22;68889;48.232;10.110;2023-08-08T00:12:03;12.00;93.70
79439;DHT22;68889;48.232;10.110;2023-08-08T00:14:31;12.00;93.50
79439;DHT22;68889;48.232;10.110;2023-08-08T00:16:56;11.90;93.90
79439;DHT22;68889;48.232;10.110;2023-08-08T00:19:22;11.80;94.10
79439;DHT22;68889;48.232;10.110;2023-08-08T00:21:48;11.80;94.00
79439;DHT22;68889;48.232;10.110;2023-08-08T00:24:13;11.70;94.20
79439;DHT22;68889;48.232;10.110;2023-08-08T00:26:39;11.70;94.20
79439;DHT22;68889;48.232;10.110;2023-08-08T00:29:04;11.70;94.40
79439;DHT22;68889;48.232;10.110;2023-08-08T00:31:31;11.60;94.30
79439;DHT22;68889;48.232;10.110;2023-08-08T00:33:57;11.60;94.50
79439;DHT22;68889;48.232;10.110;2023-08-08T00:36:22;11.50;94.80
79439;DHT22;68889;48.232;10.110;2023-08-08T00:38:48;11.50;94.60
79439;DHT22;68889;48.232;10.110;2023-08-08T00:41:15;11.50;94.80
79439;DHT22;68889;48.232;10.110;2023-08-08T00:43:40;11.50;94.70
79439;DHT22;68889;48.232;10.110;2023-08-08T00:46:06;11.40;94.60
79439;DHT22;68889;48.232;10.110;2023-08-08T00:48:32;11.40;94.50
79439;DHT22;68889;48.232;10.110;2023-08-08T00:50:57;11.30;94.90
79439;DHT22;68889;48.232;10.110;2023-08-08T00:53:23;11.30;94.90
79439;DHT22;68889;48.232;10.110;2023-08-08T00:55:52;11.30;94.80
79439;DHT22;68889;48.232;10.110;2023-08-08T00:58:18;11.30;94.90
79439;DHT22;68889;48.232;10.110;2023-08-08T01:00:44;11.30;94.70
79439;DHT22;68889;48.232;10.110;2023-08-08T01:03:10;11.30;94.70
79439;DHT22;68889;48.232;10.110;2023-08-08T01:05:43;11.30;94.80
79439;DHT22;68889;48.232;10.110;2023-08-08T01:08:16;11.30;94.60
79439;DHT22;68889;48.232;10.110;2023-08-08T01:10:45;11.40;94.40
79439;DHT22;68889;48.232;10.110;2023-08-08T01:13:17;11.50;94.30
79439;DHT22;68889;48.232;10.110;2023-08-08T01:15:48;11.50;93.90
79439;DHT22;68889;48.232;10.110;2023-08-08T01:18:15;11.50;93.80
79439;DHT22;68889;48.232;10.110;2023-08-08T01:20:43;11.60;93.60
79439;DHT22;68889;48.232;10.110;2023-08-08T01:23:11;11.60;93.50
79439;DHT22;68889;48.232;10.110;2023-08-08T01:25:39;11.70;93.20
79439;DHT22;68889;48.232;10.110;2023-08-08T01:28:06;11.70;93.40
79439;DHT22;68889;48.232;10.110;2023-08-08T01:30:32;11.70;93.00
79439;DHT22;68889;48.232;10.110;2023-08-08T01:32:58;11.80;92.90
79439;DHT22;68889;48.232;10.110;2023-08-08T01:35:26;11.80;92.60
79439;DHT22;68889;48.232;10.110;2023-08-08T01:38:36;11.90;92.60
79439;DHT22;68889;48.232;10.110;2023-08-08T01:40:54;11.90;92.60
79439;DHT22;68889;48.232;10.110;2023-08-08T01:43:24;11.90;92.10
79439;DHT22;68889;48.232;10.110;2023-08-08T01:45:57;11.90;92.30
79439;DHT22;68889;48.232;10.110;2023-08-08T01:48:23;11.90;92.40
79439;DHT22;68889;48.232;10.110;2023-08-08T01:50:49;11.90;92.30
79439;DHT22;68889;48.232;10.110;2023-08-08T01:53:14;11.90;91.80
79439;DHT22;68889;48.232;10.110;2023-08-08T01:55:40;11.80;92.40
79439;DHT22;68889;48.232;10.110;2023-08-08T01:58:05;11.90;92.20
79439;DHT22;68889;48.232;10.110;2023-08-08T02:00:31;11.90;91.80
79439;DHT22;68889;48.232;10.110;2023-08-08T02:02:58;11.90;92.20
79439;DHT22;68889;48.232;10.110;2023-08-08T02:05:23;11.90;92.20
79439;DHT22;68889;48.232;10.110;2023-08-08T02:07:49;11.90;92.30
79439;DHT22;68889;48.232;10.110;2023-08-08T02:10:15;11.90;91.70
79439;DHT22;68889;48.232;10.110;2023-08-08T02:12:40;11.90;91.70
79439;DHT22;68889;48.232;10.110;2023-08-08T02:15:06;12.00;91.70
79439;DHT22;68889;48.232;10.110;2023-08-08T02:17:32;12.00;92.00
79439;DHT22;68889;48.232;10.110;2023-08-08T02:19:58;12.00;91.60
79439;DHT22;68889;48.232;10.110;2023-08-08T02:22:26;12.00;91.60
79439;DHT22;68889;48.232;10.110;2023-08-08T02:24:52;12.00;92.00
79439;DHT22;68889;48.232;10.110;2023-08-08T02:27:18;12.00;92.20
79439;DHT22;68889;48.232;10.110;2023-08-08T02:29:43;12.00;91.90
79439;DHT22;68889;48.232;10.110;2023-08-08T02:32:09;12.00;91.50
79439;DHT22;68889;48.232;10.110;2023-08-08T02:34:37;12.00;92.00
79439;DHT22;68889;48.232;10.110;2023-08-08T02:37:03;12.00;92.00
79439;DHT22;68889;48.232;10.110;2023-08-08T02:39:29;12.00;91.80
79439;DHT22;68889;48.232;10.110;2023-08-08T02:41:55;12.10;91.40
79439;DHT22;68889;48.232;10.110;2023-08-08T02:44:25;12.10;91.70
79439;DHT22;68889;48.232;10.110;2023-08-08T02:46:50;12.10;91.90
79439;DHT22;68889;48.232;10.110;2023-08-08T02:49:16;12.10;91.70
79439;DHT22;68889;48.232;10.110;2023-08-08T02:51:41;12.00;91.60
79439;DHT22;68889;48.232;10.110;2023-08-08T02:54:07;12.10;91.70
79439;DHT22;68889;48.232;10.110;2023-08-08T02:56:33;12.10;91.40
79439;DHT22;68889;48.232;10.110;2023-08-08T02:58:58;12.10;91.90
79439;DHT22;68889;48.232;10.110;2023-08-08T03:01:24;12.10;91.80
79439;DHT22;68889;48.232;10.110;2023-08-08T03:03:49;12.20;91.50
79439;DHT22;68889;48.232;10.110;2023-08-08T03:06:15;12.20;91.10
79439;DHT22;68889;48.232;10.110;2023-08-08T03:08:41;12.20;91.00
79439;DHT22;68889;48.232;10.110;2023-08-08T03:11:06;12.20;91.30
79439;DHT22;68889;48.232;10.110;2023-08-08T03:13:32;12.20;91.00
79439;DHT22;68889;48.232;10.110;2023-08-08T03:15:58;12.30;90.80
79439;DHT22;68889;48.232;10.110;2023-08-08T03:18:23;12.30;90.70
79439;DHT22;68889;48.232;10.110;2023-08-08T03:20:51;12.30;90.90
79439;DHT22;68889;48.232;10.110;2023-08-08T03:23:17;12.30;91.10
79439;DHT22;68889;48.232;10.110;2023-08-08T03:25:42;12.20;91.60
79439;DHT22;68889;48.232;10.110;2023-08-08T03:28:08;12.20;91.40
79439;DHT22;68889;48.232;10.110;2023-08-08T03:30:36;12.20;91.60
79439;DHT22;68889;48.232;10.110;2023-08-08T03:33:02;12.20;91.30
79439;DHT22;68889;48.232;10.110;2023-08-08T03:35:28;12.20;91.50
79439;DHT22;68889;48.232;10.110;2023-08-08T03:37:53;12.20;91.40
79439;DHT22;68889;48.232;10.110;2023-08-08T03:40:19;12.20;91.80
79439;DHT22;68889;48.232;10.110;2023-08-08T03:42:44;12.20;91.10
79439;DHT22;68889;48.232;10.110;2023-08-08T03:45:10;12.30;91.20
79439;DHT22;68889;48.232;10.110;2023-08-08T03:47:39;12.20;91.00
79439;DHT22;68889;48.232;10.110;2023-08-08T03:50:06;12.20;90.80
79439;DHT22;68889;48.232;10.110;2023-08-08T03:52:34;12.20;91.00
79439;DHT22;68889;48.232;10.110;2023-08-08T03:55:03;12.20;91.00
79439;DHT22;68889;48.232;10.110;2023-08-08T03:57:29;12.20;90.90
79439;DHT22;68889;48.232;10.110;2023-08-08T03:59:54;12.10;91.00
79439;DHT22;68889;48.232;10.110;2023-08-08T04:02:20;12.10;91.00
79439;DHT22;68889;48.232;10.110;2023-08-08T04:04:45;12.00;91.30
79439;DHT22;68889;48.232;10.110;2023-08-08T04:07:11;11.90;91.40
79439;DHT22;68889;48.232;10.110;2023-08-08T04:09:36;11.80;91.60
79439;DHT22;68889;48.232;10.110;2023-08-08T04:12:02;11.80;91.50
79439;DHT22;68889;48.232;10.110;2023-08-08T04:14:27;11.80;91.70
79439;DHT22;68889;48.232;10.110;2023-08-08T04:16:53;11.70;91.70
79439;DHT22;68889;48.232;10.110;2023-08-08T04:19:19;11.70;91.90
79439;DHT22;68889;48.232;10.110;2023-08-08T04:21:44;11.70;92.00
79439;DHT22;68889;48.232;10.110;2023-08-08T04:24:10;11.70;92.10
79439;DHT22;68889;48.232;10.110;2023-08-08T04:26:37;11.70;92.20
79439;DHT22;68889;48.232;10.110;2023-08-08T04:29:03;11.70;92.10
79439;DHT22;68889;48.232;10.110;2023-08-08T04:31:29;11.70;92.70
79439;DHT22;68889;48.232;10.110;2023-08-08T04:33:54;11.70;92.70
79439;DHT22;68889;48.232;10.110;2023-08-08T04:36:28;11.70;92.60
79439;DHT22;68889;48.232;10.110;2023-08-08T04:38:54;11.70;92.30
79439;DHT22;68889;48.232;10.110;2023-08-08T04:41:20;11.70;92.30
79439;DHT22;68889;48.232;10.110;2023-08-08T04:43:45;11.70;92.40
79439;DHT22;68889;48.232;10.110;2023-08-08T04:46:11;11.70;92.20
79439;DHT22;68889;48.232;10.110;2023-08-08T04:48:37;11.80;92.20
79439;DHT22;68889;48.232;10.110;2023-08-08T04:51:06;11.90;91.70
79439;DHT22;68889;48.232;10.110;2023-08-08T04:53:32;12.00;91.40
79439;DHT22;68889;48.232;10.110;2023-08-08T04:55:58;12.10;91.00
79439;DHT22;68889;48.232;10.110;2023-08-08T04:58:24;12.20;90.90
79439;DHT22;68889;48.232;10.110;2023-08-08T05:00:49;12.20;90.60
79439;DHT22;68889;48.232;10.110;2023-08-08T05:03:18;12.30;91.10
79439;DHT22;68889;48.232;10.110;2023-08-08T05:05:43;12.40;90.30
79439;DHT22;68889;48.232;10.110;2023-08-08T05:08:12;12.50;90.20
79439;DHT22;68889;48.232;10.110;2023-08-08T05:10:38;12.60;89.80
79439;DHT22;68889;48.232;10.110;2023-08-08T05:13:04;12.70;89.20
79439;DHT22;68889;48.232;10.110;2023-08-08T05:15:29;12.90;89.00
79439;DHT22;68889;48.232;10.110;2023-08-08T05:17:55;13.00;89.10
79439;DHT22;68889;48.232;10.110;2023-08-08T05:20:21;13.00;89.00
79439;DHT22;68889;48.232;10.110;2023-08-08T05:22:47;13.10;88.60
79439;DHT22;68889;48.232;10.110;2023-08-08T05:25:13;13.20;88.10
79439;DHT22;68889;48.232;10.110;2023-08-08T05:27:39;13.30;87.80
79439;DHT22;68889;48.232;10.110;2023-08-08T05:30:05;13.30;87.40
79439;DHT22;68889;48.232;10.110;2023-08-08T05:32:31;13.30;87.90
79439;DHT22;68889;48.232;10.110;2023-08-08T05:34:57;13.30;88.00
79439;DHT22;68889;48.232;10.110;2023-08-08T05:37:24;13.30;87.40
79439;DHT22;68889;48.232;10.110;2023-08-08T05:39:49;13.30;87.10
79439;DHT22;68889;48.232;10.110;2023-08-08T05:42:15;13.20;87.20
79439;DHT22;68889;48.232;10.110;2023-08-08T05:44:41;13.30;86.80
79439;DHT22;68889;48.232;10.110;2023-08-08T05:47:10;13.30;87.00
79439;DHT22;68889;48.232;10.110;2023-08-08T05:49:35;13.30;87.10
79439;DHT22;68889;48.232;10.110;2023-08-08T05:52:01;13.40;87.50
79439;DHT22;68889;48.232;10.110;2023-08-08T05:54:27;13.50;87.00
79439;DHT22;68889;48.232;10.110;2023-08-08T05:56:53;13.60;86.60
79439;DHT22;68889;48.232;10.110;2023-08-08T05:59:19;13.70;86.50
79439;DHT22;68889;48.232;10.110;2023-08-08T06:01:45;13.90;85.80
79439;DHT22;68889;48.232;10.110;2023-08-08T06:04:11;14.00;85.50
79439;DHT22;68889;48.232;10.110;2023-08-08T06:06:37;14.00;85.30
79439;DHT22;68889;48.232;10.110;2023-08-08T06:09:03;14.00;85.10
79439;DHT22;68889;48.232;10.110;2023-08-08T06:11:29;14.00;85.80
79439;DHT22;68889;48.232;10.110;2023-08-08T06:13:54;13.90;85.30
79439;DHT22;68889;48.232;10.110;2023-08-08T06:16:21;14.00;85.40
79439;DHT22;68889;48.232;10.110;2023-08-08T06:18:46;14.00;86.20
79439;DHT22;68889;48.232;10.110;2023-08-08T06:21:12;14.10;85.90
79439;DHT22;68889;48.232;10.110;2023-08-08T06:23:57;14.10;85.20
79439;DHT22;68889;48.232;10.110;2023-08-08T06:26:23;14.20;85.70
79439;DHT22;68889;48.232;10.110;2023-08-08T06:28:48;14.30;85.20
79439;DHT22;68889;48.232;10.110;2023-08-08T06:31:14;14.50;84.80
79439;DHT22;68889;48.232;10.110;2023-08-08T06:33:40;14.60;85.70
79439;DHT22;68889;48.232;10.110;2023-08-08T06:36:07;14.60;84.70
79439;DHT22;68889;48.232;10.110;2023-08-08T06:38:33;14.60;82.80
79439;DHT22;68889;48.232;10.110;2023-08-08T06:41:00;14.70;83.80
79439;DHT22;68889;48.232;10.110;2023-08-08T06:43:28;14.90;83.10
79439;DHT22;68889;48.232;10.110;2023-08-08T06:45:54;15.00;81.90
79439;DHT22;68889;48.232;10.110;2023-08-08T06:48:23;15.10;81.70
79439;DHT22;68889;48.232;10.110;2023-08-08T06:50:49;15.20;83.10
79439;DHT22;68889;48.232;10.110;2023-08-08T06:53:15;15.40;82.40
79439;DHT22;68889;48.232;10.110;2023-08-08T06:55:41;15.60;82.00
79439;DHT22;68889;48.232;10.110;2023-08-08T06:58:06;15.70;82.00
79439;DHT22;68889;48.232;10.110;2023-08-08T07:00:32;15.80;80.00
79439;DHT22;68889;48.232;10.110;2023-08-08T07:02:57;15.80;79.40
79439;DHT22;68889;48.232;10.110;2023-08-08T07:05:23;15.90;80.00
79439;DHT22;68889;48.232;10.110;2023-08-08T07:07:52;16.10;80.00
79439;DHT22;68889;48.232;10.110;2023-08-08T07:10:18;16.20;79.40
79439;DHT22;68889;48.232;10.110;2023-08-08T07:12:44;16.30;78.30
79439;DHT22;68889;48.232;10.110;2023-08-08T07:15:10;16.40;78.90
79439;DHT22;68889;48.232;10.110;2023-08-08T07:17:36;16.40;78.80
79439;DHT22;68889;48.232;10.110;2023-08-08T07:20:02;16.60;79.90
79439;DHT22;68889;48.232;10.110;2023-08-08T07:22:28;16.70;78.60
79439;DHT22;68889;48.232;10.110;2023-08-08T07:24:53;16.80;78.10
79439;DHT22;68889;48.232;10.110;2023-08-08T07:27:22;17.00;77.00
79439;DHT22;68889;48.232;10.110;2023-08-08T07:29:47;17.10;76.50
79439;DHT22;68889;48.232;10.110;2023-08-08T07:32:13;17.20;74.70
79439;DHT22;68889;48.232;10.110;2023-08-08T07:34:38;17.30;75.20
79439;DHT22;68889;48.232;10.110;2023-08-08T07:37:04;17.40;73.70
79439;DHT22;68889;48.232;10.110;2023-08-08T07:39:30;17.40;76.50
79439;DHT22;68889;48.232;10.110;2023-08-08T07:41:56;17.50;74.10
79439;DHT22;68889;48.232;10.110;2023-08-08T07:44:22;17.60;73.00
79439;DHT22;68889;48.232;10.110;2023-08-08T07:46:48;17.70;74.30
79439;DHT22;68889;48.232;10.110;2023-08-08T07:49:13;17.90;73.00
79439;DHT22;68889;48.232;10.110;2023-08-08T07:51:39;17.90;73.40
79439;DHT22;68889;48.232;10.110;2023-08-08T07:54:05;18.00;72.80
79439;DHT22;68889;48.232;10.110;2023-08-08T07:56:34;18.10;74.90
79439;DHT22;68889;48.232;10.110;2023-08-08T07:59:02;18.30;72.80
79439;DHT22;68889;48.232;10.110;2023-08-08T08:01:29;18.30;71.00
79439;DHT22;68889;48.232;10.110;2023-08-08T08:03:54;18.50;72.10
79439;DHT22;68889;48.232;10.110;2023-08-08T08:06:20;18.70;71.10
79439;DHT22;68889;48.232;10.110;2023-08-08T08:08:46;18.80;71.60
79439;DHT22;68889;48.232;10.110;2023-08-08T08:11:11;18.90;73.60
79439;DHT22;68889;48.232;10.110;2023-08-08T08:13:38;19.10;71.70
79439;DHT22;68889;48.232;10.110;2023-08-08T08:16:04;19.10;71.20
79439;DHT22;68889;48.232;10.110;2023-08-08T08:18:33;19.10;69.80
79439;DHT22;68889;48.232;10.110;2023-08-08T08:20:59;19.20;71.00
79439;DHT22;68889;48.232;10.110;2023-08-08T08:23:25;19.20;71.30
79439;DHT22;68889;48.232;10.110;2023-08-08T08:25:50;19.20;70.60
79439;DHT22;68889;48.232;10.110;2023-08-08T08:28:16;19.20;68.10
79439;DHT22;68889;48.232;10.110;2023-08-08T08:30:42;19.30;71.20
79439;DHT22;68889;48.232;10.110;2023-08-08T08:33:08;19.50;70.80
79439;DHT22;68889;48.232;10.110;2023-08-08T08:35:34;19.60;71.00
79439;DHT22;68889;48.232;10.110;2023-08-08T08:38:00;19.80;70.60
79439;DHT22;68889;48.232;10.110;2023-08-08T08:40:26;19.90;69.10
79439;DHT22;68889;48.232;10.110;2023-08-08T08:42:53;20.20;69.00
79439;DHT22;68889;48.232;10.110;2023-08-08T08:45:20;20.30;70.80
79439;DHT22;68889;48.232;10.110;2023-08-08T08:47:47;20.60;67.30
79439;DHT22;68889;48.232;10.110;2023-08-08T08:50:22;20.80;68.80
79439;DHT22;68889;48.232;10.110;2023-08-08T08:52:50;21.00;67.40
79439;DHT22;68889;48.232;10.110;2023-08-08T08:55:17;21.00;66.20
79439;DHT22;68889;48.232;10.110;2023-08-08T08:57:42;21.20;69.70
79439;DHT22;68889;48.232;10.110;2023-08-08T09:00:10;21.40;68.00
79439;DHT22;68889;48.232;10.110;2023-08-08T09:02:36;21.50;63.40
79439;DHT22;68889;48.232;10.110;2023-08-08T09:05:04;21.50;65.60
79439;DHT22;68889;48.232;10.110;2023-08-08T09:07:31;21.60;62.60
79439;DHT22;68889;48.232;10.110;2023-08-08T09:09:57;21.80;65.10
79439;DHT22;68889;48.232;10.110;2023-08-08T09:12:22;21.90;64.50
79439;DHT22;68889;48.232;10.110;2023-08-08T09:14:54;21.90;63.80
79439;DHT22;68889;48.232;10.110;2023-08-08T09:17:29;21.90;63.50
79439;DHT22;68889;48.232;10.110;2023-08-08T09:19:55;21.90;62.90
79439;DHT22;68889;48.232;10.110;2023-08-08T09:22:23;21.60;63.50
79439;DHT22;68889;48.232;10.110;2023-08-08T09:24:49;21.70;65.30
79439;DHT22;68889;48.232;10.110;2023-08-08T09:27:14;21.80;64.20
79439;DHT22;68889;48.232;10.110;2023-08-08T09:29:41;22.00;63.80
79439;DHT22;68889;48.232;10.110;2023-08-08T09:32:07;22.30;65.50
79439;DHT22;68889;48.232;10.110;2023-08-08T09:34:34;22.50;62.10
79439;DHT22;68889;48.232;10.110;2023-08-08T09:37:01;22.50;59.60
79439;DHT22;68889;48.232;10.110;2023-08-08T09:39:28;22.50;59.90
79439;DHT22;68889;48.232;10.110;2023-08-08T09:41:55;22.30;61.50
79439;DHT22;68889;48.232;10.110;2023-08-08T09:44:25;22.10;63.80
79439;DHT22;68889;48.232;10.110;2023-08-08T09:46:51;22.10;61.80
79439;DHT22;68889;48.232;10.110;2023-08-08T09:49:17;22.30;62.90
79439;DHT22;68889;48.232;10.110;2023-08-08T09:51:44;22.50;59.80
79439;DHT22;68889;48.232;10.110;2023-08-08T09:54:11;22.60;60.20
79439;DHT22;68889;48.232;10.110;2023-08-08T09:56:37;22.60;60.30
79439;DHT22;68889;48.232;10.110;2023-08-08T09:59:05;22.60;58.60
79439;DHT22;68889;48.232;10.110;2023-08-08T10:01:31;22.60;57.50
79439;DHT22;68889;48.232;10.110;2023-08-08T10:03:58;22.70;57.80
79439;DHT22;68889;48.232;10.110;2023-08-08T10:06:23;22.80;55.10
79439;DHT22;68889;48.232;10.110;2023-08-08T10:08:50;22.90;59.30
79439;DHT22;68889;48.232;10.110;2023-08-08T10:11:16;22.90;57.10
79439;DHT22;68889;48.232;10.110;2023-08-08T10:13:49;23.00;57.60
79439;DHT22;68889;48.232;10.110;2023-08-08T10:16:16;23.10;58.20
79439;DHT22;68889;48.232;10.110;2023-08-08T10:18:42;23.10;57.80
79439;DHT22;68889;48.232;10.110;2023-08-08T10:21:08;23.10;60.10
79439;DHT22;68889;48.232;10.110;2023-08-08T10:23:37;23.20;58.20
79439;DHT22;68889;48.232;10.110;2023-08-08T10:26:05;23.60;57.80
79439;DHT22;68889;48.232;10.110;2023-08-08T10:28:32;23.40;56.60
79439;DHT22;68889;48.232;10.110;2023-08-08T10:31:00;23.30;56.70
79439;DHT22;68889;48.232;10.110;2023-08-08T10:33:38;23.10;56.70
79439;DHT22;68889;48.232;10.110;2023-08-08T10:36:06;23.00;61.90
79439;DHT22;68889;48.232;10.110;2023-08-08T10:38:43;23.20;60.90
79439;DHT22;68889;48.232;10.110;2023-08-08T10:41:14;23.50;58.70
79439;DHT22;68889;48.232;10.110;2023-08-08T10:43:53;23.80;57.00
79439;DHT22;68889;48.232;10.110;2023-08-08T10:46:30;24.00;57.90
79439;DHT22;68889;48.232;10.110;2023-08-08T10:49:04;24.20;60.30
79439;DHT22;68889;48.232;10.110;2023-08-08T10:51:37;24.60;59.60
79439;DHT22;68889;48.232;10.110;2023-08-08T10:54:08;24.80;58.50
79439;DHT22;68889;48.232;10.110;2023-08-08T10:56:37;24.70;54.00
79439;DHT22;68889;48.232;10.110;2023-08-08T10:59:16;24.70;56.70
79439;DHT22;68889;48.232;10.110;2023-08-08T11:01:45;24.70;52.00
79439;DHT22;68889;48.232;10.110;2023-08-08T11:04:15;24.60;51.60
79439;DHT22;68889;48.232;10.110;2023-08-08T11:06:40;24.50;53.40
79439;DHT22;68889;48.232;10.110;2023-08-08T11:09:06;24.60;53.60
79439;DHT22;68889;48.232;10.110;2023-08-08T11:11:40;24.70;52.40
79439;DHT22;68889;48.232;10.110;2023-08-08T11:14:32;24.80;57.90
79439;DHT22;68889;48.232;10.110;2023-08-08T11:16:57;24.90;55.10
79439;DHT22;68889;48.232;10.110;2023-08-08T11:19:23;25.00;54.60
79439;DHT22;68889;48.232;10.110;2023-08-08T11:21:49;25.10;55.90
79439;DHT22;68889;48.232;10.110;2023-08-08T11:24:18;25.30;52.40
79439;DHT22;68889;48.232;10.110;2023-08-08T11:26:48;25.30;52.50
79439;DHT22;68889;48.232;10.110;2023-08-08T11:29:13;25.10;51.90
79439;DHT22;68889;48.232;10.110;2023-08-08T11:31:41;25.00;50.40
79439;DHT22;68889;48.232;10.110;2023-08-08T11:34:09;25.00;54.80
79439;DHT22;68889;48.232;10.110;2023-08-08T11:36:37;25.20;57.90
79439;DHT22;68889;48.232;10.110;2023-08-08T11:39:04;25.30;55.00
79439;DHT22;68889;48.232;10.110;2023-08-08T11:41:34;25.20;52.00
79439;DHT22;68889;48.232;10.110;2023-08-08T11:44:00;24.90;54.20
79439;DHT22;68889;48.232;10.110;2023-08-08T11:46:25;24.70;54.20
79439;DHT22;68889;48.232;10.110;2023-08-08T11:48:51;24.70;53.70
79439;DHT22;68889;48.232;10.110;2023-08-08T11:51:17;24.50;52.10
79439;DHT22;68889;48.232;10.110;2023-08-08T11:53:52;24.10;52.40
79439;DHT22;68889;48.232;10.110;2023-08-08T11:56:21;24.00;53.70
79439;DHT22;68889;48.232;10.110;2023-08-08T11:58:49;24.40;54.10
79439;DHT22;68889;48.232;10.110;2023-08-08T12:01:15;24.40;53.00
79439;DHT22;68889;48.232;10.110;2023-08-08T12:03:42;24.10;52.30
79439;DHT22;68889;48.232;10.110;2023-08-08T12:06:14;23.70;56.20
79439;DHT22;68889;48.232;10.110;2023-08-08T12:08:42;23.70;54.80
79439;DHT22;68889;48.232;10.110;2023-08-08T12:11:09;23.50;54.90
79439;DHT22;68889;48.232;10.110;2023-08-08T12:13:37;23.30;54.50
79439;DHT22;68889;48.232;10.110;2023-08-08T12:16:08;23.20;59.30
79439;DHT22;68889;48.232;10.110;2023-08-08T12:18:36;23.00;54.50
79439;DHT22;68889;48.232;10.110;2023-08-08T12:21:05;23.00;55.70
79439;DHT22;68889;48.232;10.110;2023-08-08T12:23:32;23.00;60.30
79439;DHT22;68889;48.232;10.110;2023-08-08T12:26:02;23.50;58.10
79439;DHT22;68889;48.232;10.110;2023-08-08T12:28:28;24.00;58.30
79439;DHT22;68889;48.232;10.110;2023-08-08T12:30:54;24.60;60.10
79439;DHT22;68889;48.232;10.110;2023-08-08T12:33:22;25.20;54.90
79439;DHT22;68889;48.232;10.110;2023-08-08T12:35:48;25.50;52.60
79439;DHT22;68889;48.232;10.110;2023-08-08T12:38:14;25.80;53.10
79439;DHT22;68889;48.232;10.110;2023-08-08T12:40:40;26.10;52.60
79439;DHT22;68889;48.232;10.110;2023-08-08T12:43:06;26.20;49.20
79439;DHT22;68889;48.232;10.110;2023-08-08T12:45:32;26.30;49.20
79439;DHT22;68889;48.232;10.110;2023-08-08T12:47:57;26.40;48.80
79439;DHT22;68889;48.232;10.110;2023-08-08T12:50:24;26.10;53.80
79439;DHT22;68889;48.232;10.110;2023-08-08T12:52:50;25.70;53.50
79439;DHT22;68889;48.232;10.110;2023-08-08T12:55:15;25.80;50.90
79439;DHT22;68889;48.232;10.110;2023-08-08T12:57:43;25.80;51.60
79439;DHT22;68889;48.232;10.110;2023-08-08T13:00:10;26.10;51.70
79439;DHT22;68889;48.232;10.110;2023-08-08T13:02:36;26.40;54.20
79439;DHT22;68889;48.232;10.110;2023-08-08T13:05:02;26.60;49.70
79439;DHT22;68889;48.232;10.110;2023-08-08T13:07:29;26.60;51.80
79439;DHT22;68889;48.232;10.110;2023-08-08T13:09:55;26.50;50.60
79439;DHT22;68889;48.232;10.110;2023-08-08T13:12:20;26.00;49.70
79439;DHT22;68889;48.232;10.110;2023-08-08T13:14:46;25.20;50.00
79439;DHT22;68889;48.232;10.110;2023-08-08T13:17:12;25.20;51.10
79439;DHT22;68889;48.232;10.110;2023-08-08T13:19:37;25.90;50.00
79439;DHT22;68889;48.232;10.110;2023-08-08T13:22:03;26.00;48.40
79439;DHT22;68889;48.232;10.110;2023-08-08T13:24:29;26.00;50.70
79439;DHT22;68889;48.232;10.110;2023-08-08T13:26:54;25.90;50.40
79439;DHT22;68889;48.232;10.110;2023-08-08T13:29:20;25.90;52.40
79439;DHT22;68889;48.232;10.110;2023-08-08T13:31:45;25.90;51.60
79439;DHT22;68889;48.232;10.110;2023-08-08T13:34:11;26.00;53.90
79439;DHT22;68889;48.232;10.110;2023-08-08T13:36:36;25.90;53.30
79439;DHT22;68889;48.232;10.110;2023-08-08T13:39:02;25.80;53.00
79439;DHT22;68889;48.232;10.110;2023-08-08T13:41:29;25.90;54.80
79439;DHT22;68889;48.232;10.110;2023-08-08T13:43:55;25.40;51.60
79439;DHT22;68889;48.232;10.110;2023-08-08T13:46:22;25.00;51.90
79439;DHT22;68889;48.232;10.110;2023-08-08T13:48:47;25.00;54.30
79439;DHT22;68889;48.232;10.110;2023-08-08T13:51:13;25.30;53.00
79439;DHT22;68889;48.232;10.110;2023-08-08T13:53:39;25.60;50.60
79439;DHT22;68889;48.232;10.110;2023-08-08T13:56:04;25.80;54.10
79439;DHT22;68889;48.232;10.110;2023-08-08T13:58:31;25.80;51.80
79439;DHT22;68889;48.232;10.110;2023-08-08T14:00:56;25.90;51.50
79439;DHT22;68889;48.232;10.110;2023-08-08T14:03:23;26.10;50.40
79439;DHT22;68889;48.232;10.110;2023-08-08T14:05:50;26.20;51.30
79439;DHT22;68889;48.232;10.110;2023-08-08T14:08:18;26.50;52.00
79439;DHT22;68889;48.232;10.110;2023-08-08T14:10:43;26.50;57.00
79439;DHT22;68889;48.232;10.110;2023-08-08T14:13:09;26.30;51.30
79439;DHT22;68889;48.232;10.110;2023-08-08T14:15:36;26.10;50.40
79439;DHT22;68889;48.232;10.110;2023-08-08T14:18:02;25.60;52.40
79439;DHT22;68889;48.232;10.110;2023-08-08T14:20:28;25.00;52.20
79439;DHT22;68889;48.232;10.110;2023-08-08T14:22:54;24.40;51.80
79439;DHT22;68889;48.232;10.110;2023-08-08T14:25:19;24.10;53.10
79439;DHT22;68889;48.232;10.110;2023-08-08T14:27:46;23.90;53.90
79439;DHT22;68889;48.232;10.110;2023-08-08T14:30:11;23.50;55.80
79439;DHT22;68889;48.232;10.110;2023-08-08T14:32:37;23.40;56.10
79439;DHT22;68889;48.232;10.110;2023-08-08T14:35:03;23.30;57.50
79439;DHT22;68889;48.232;10.110;2023-08-08T14:37:30;23.40;56.80
79439;DHT22;68889;48.232;10.110;2023-08-08T14:39:56;23.40;57.30
79439;DHT22;68889;48.232;10.110;2023-08-08T14:42:22;23.50;57.00
79439;DHT22;68889;48.232;10.110;2023-08-08T14:44:48;23.50;56.30
79439;DHT22;68889;48.232;10.110;2023-08-08T14:47:14;23.60;57.10
79439;DHT22;68889;48.232;10.110;2023-08-08T14:49:40;24.00;57.00
79439;DHT22;68889;48.232;10.110;2023-08-08T14:52:05;24.40;60.00
79439;DHT22;68889;48.232;10.110;2023-08-08T14:54:31;24.70;54.20
79439;DHT22;68889;48.232;10.110;2023-08-08T14:56:56;24.70;55.80
79439;DHT22;68889;48.232;10.110;2023-08-08T14:59:23;24.60;55.10
79439;DHT22;68889;48.232;10.110;2023-08-08T15:01:49;24.40;54.80
79439;DHT22;68889;48.232;10.110;2023-08-08T15:04:15;24.10;54.80
79439;DHT22;68889;48.232;10.110;2023-08-08T15:06:41;24.00;55.90
79439;DHT22;68889;48.232;10.110;2023-08-08T15:09:06;24.00;56.30
79439;DHT22;68889;48.232;10.110;2023-08-08T15:11:32;24.20;57.20
79439;DHT22;68889;48.232;10.110;2023-08-08T15:13:57;24.40;54.90